createdAt,value
2023-03-11T06:57:06.880Z,6.30
2023-03-11T06:59:35.770Z,6.70
2023-03-11T07:44:56.708Z,7.30
2023-03-11T07:47:28.276Z,7.60
2023-03-11T09:26:50.159Z,15.70
2023-03-11T09:29:18.500Z,15.50
2023-03-11T09:31:46.203Z,15.30
2023-03-11T09:34:16.075Z,15.50
2023-03-11T09:36:46.120Z,15.40
2023-03-11T09:39:13.881Z,14.90
2023-03-11T09:42:20.133Z,14.80
2023-03-11T09:45:19.541Z,14.50
2023-03-11T09:48:14.366Z,14.10
2023-03-11T09:51:11.521Z,13.80
2023-03-11T09:53:45.823Z,13.60
2023-03-11T09:56:18.659Z,13.50
2023-03-11T09:58:51.691Z,13.80
2023-03-11T10:59:26.053Z,11.80
2023-03-11T11:02:30.466Z,11.80
2023-03-11T11:05:16.660Z,11.80
2023-03-11T11:07:46.323Z,11.80
2023-03-11T11:10:29.290Z,11.90
2023-03-11T11:13:07.426Z,11.90
2023-03-11T11:15:37.558Z,11.90
2023-03-11T11:18:07.099Z,12.00
2023-03-11T11:21:05.451Z,12.40
2023-03-11T11:23:43.592Z,12.10
2023-03-11T11:26:37.395Z,12.20
2023-03-11T11:29:11.164Z,12.80
2023-03-11T11:31:43.404Z,12.20
2023-03-11T11:37:55.568Z,12.10
2023-03-11T11:40:34.018Z,12.40
2023-03-11T11:43:16.636Z,12.00
2023-03-11T11:45:53.779Z,12.50
2023-03-11T11:48:36.733Z,12.00
2023-03-11T11:51:15.304Z,12.30
2023-03-11T11:53:55.637Z,11.90
2023-03-11T11:56:26.756Z,11.90
2023-03-11T11:58:56.640Z,11.90
2023-03-11T12:01:57.972Z,11.40
2023-03-11T12:04:55.423Z,11.80
2023-03-11T12:07:58.020Z,11.80
2023-03-11T12:10:36.587Z,11.40
2023-03-11T12:13:29.106Z,11.80
2023-03-11T12:16:21.238Z,11.80
2023-03-11T12:20:05.016Z,11.80
2023-03-11T12:22:55.701Z,11.70
2023-03-11T12:25:44.947Z,11.60
2023-03-11T12:28:18.557Z,11.60
2023-03-11T12:31:49.115Z,11.60
2023-03-11T12:35:02.738Z,11.60
2023-03-11T12:40:36.036Z,11.60
2023-03-11T12:51:39.320Z,12.10
2023-03-11T13:08:48.467Z,11.80
2023-03-11T13:11:56.200Z,11.40
2023-03-11T13:15:05.476Z,11.40
2023-03-11T13:18:19.204Z,12.10
2023-03-11T13:20:53.221Z,12.10
2023-03-11T13:23:42.969Z,11.70
2023-03-11T13:26:31.226Z,11.50
2023-03-11T13:29:29.990Z,12.30
2023-03-11T13:32:22.061Z,11.70
2023-03-11T13:35:04.512Z,11.70
2023-03-11T13:38:02.684Z,11.70
2023-03-11T13:40:38.343Z,11.70
2023-03-11T13:43:15.404Z,11.60
2023-03-11T13:45:52.271Z,11.60
2023-03-11T13:48:22.436Z,11.60
2023-03-11T13:51:32.119Z,11.80
2023-03-11T13:54:03.926Z,11.50
2023-03-11T13:56:37.172Z,11.80
2023-03-11T13:59:38.001Z,11.50
2023-03-11T14:02:08.645Z,12.00
2023-03-11T14:04:37.550Z,11.80
2023-03-11T14:07:35.077Z,11.80
2023-03-11T14:10:11.558Z,11.50
2023-03-11T14:12:39.307Z,11.50
2023-03-11T14:15:21.248Z,11.80
2023-03-11T14:17:52.772Z,11.50
2023-03-11T14:20:25.236Z,11.40
2023-03-11T14:22:55.215Z,11.50
2023-03-11T14:25:28.944Z,11.50
2023-03-11T14:27:59.423Z,11.50
2023-03-11T14:30:29.767Z,11.50
2023-03-11T14:37:37.485Z,11.50
2023-03-11T14:40:23.549Z,11.50
2023-03-11T15:34:58.840Z,11.30
2023-03-11T15:37:28.402Z,11.20
